Seabourn Spirit — C6FR4 — position and weather

sailwx.info

Track history (hours):
 
Tides and Currents Weather Stations Pressure Air Temp Water Temp Dewpoint Dewpoint Depression Visibility Wind Speed Wind Dir Waves Ship Positions

Seabourn Spirit

Operator: Cunard Seabourn

Last reported at 2019-Feb-24 00:00 UTC. Time now 2019-Feb-24 00:16 UTC.
Position N 09°21' W 079°55'.

Length 133 m; draft 5.6 m.

Type: Ship. MMSI: 311083000.

Date/timePositionNaut miles runAvg speedWind from/ knotsBaromVisibWave heightAir tempDewpointWater temp
2019-Feb-24 00:00N 09°21' W 079°55'0 0.0
2019-Feb-23 23:30N 09°21' W 079°55'0 0.0
2019-Feb-23 23:00N 09°21' W 079°55'0 0.0
2019-Feb-23 22:30N 09°21' W 079°55'0 0.0
2019-Feb-23 22:00N 09°21' W 079°55'0 0.0
2019-Feb-23 21:30N 09°21' W 079°55'0 0.0
2019-Feb-23 21:00N 09°21' W 079°55'0 0.0
2019-Feb-23 20:30N 09°21' W 079°55'0 0.0
2019-Feb-23 20:00N 09°21' W 079°55'0 0.0
2019-Feb-23 19:30N 09°21' W 079°55'0 0.0
2019-Feb-23 19:00N 09°21' W 079°55'0 0.0
2019-Feb-23 18:30N 09°21' W 079°55'0 0.0
2019-Feb-23 18:00N 09°21' W 079°55'0 0.0
2019-Feb-23 17:30N 09°21' W 079°55'0 0.0
2019-Feb-23 17:00N 09°21' W 079°55'0 0.0
2019-Feb-23 16:30N 09°21' W 079°55'0 0.0
2019-Feb-23 16:00N 09°21' W 079°55'0 0.0
2019-Feb-23 15:30N 09°21' W 079°55'0 0.0
2019-Feb-23 15:00N 09°21' W 079°55'0 0.0
2019-Feb-23 14:30N 09°21' W 079°55'0 0.0
2019-Feb-23 14:00N 09°21' W 079°55'0 0.0
2019-Feb-23 13:30N 09°21' W 079°55'0 0.0
2019-Feb-23 13:00N 09°21' W 079°55'0 0.0
2019-Feb-23 12:30N 09°21' W 079°55'0 0.0
2019-Feb-23 12:00N 09°21' W 079°55'0 0.0
2019-Feb-23 11:30N 09°21' W 079°55'0 0.0
2019-Feb-23 11:00N 09°21' W 079°55'0 0.0
2019-Feb-23 10:30N 09°21' W 079°55'0 0.0
2019-Feb-23 10:00N 09°21' W 079°55'0 0.0
2019-Feb-23 09:30N 09°21' W 079°55'0 0.0
2019-Feb-23 09:00N 09°21' W 079°55'0 0.0
2019-Feb-23 08:30N 09°21' W 079°55'0 0.0
2019-Feb-23 08:00N 09°21' W 079°55'0 0.0
2019-Feb-23 07:30N 09°21' W 079°55'0 0.0
2019-Feb-23 07:00N 09°21' W 079°55'0 0.0
2019-Feb-23 06:30N 09°21' W 079°55'0 0.0
2019-Feb-23 06:00N 09°21' W 079°55'0 0.0
2019-Feb-23 05:30N 09°21' W 079°55'0 0.0
2019-Feb-23 05:00N 09°21' W 079°55'0 0.0
2019-Feb-23 04:30N 09°21' W 079°55'0 0.0
2019-Feb-23 04:00N 09°21' W 079°55'0 0.0
2019-Feb-23 03:30N 09°21' W 079°55'0 0.0
2019-Feb-23 03:00N 09°21' W 079°55'0 0.0
2019-Feb-23 02:30N 09°21' W 079°55'0 0.0
2019-Feb-23 02:00N 09°21' W 079°55'0 0.3
2019-Feb-23 01:31N 09°21' W 079°55'2 3.8
2019-Feb-23 01:00N 09°23' W 079°55'3 5.8
2019-Feb-23 00:30N 09°26' W 079°55'3 5.7
2019-Feb-23 00:00N 09°29' W 079°55'3 6.0
2019-Feb-22 23:30N 09°32' W 079°54'3 6.0
2019-Feb-22 23:01N 09°32' W 079°51'3 5.0
2019-Feb-22 22:30N 09°30' W 079°52'3 6.3
2019-Feb-22 22:00N 09°27' W 079°54'3 5.5
2019-Feb-22 21:30N 09°25' W 079°55'4 8.8
2019-Feb-22 21:00N 09°21' W 079°55'4 7.4
2019-Feb-22 20:29N 09°17' W 079°55'0 0.4
2019-Feb-22 20:00N 09°16' W 079°55'0 0.3
2019-Feb-22 19:30N 09°16' W 079°55'0 0.6
2019-Feb-22 19:00N 09°16' W 079°55'0 0.5
2019-Feb-22 18:30N 09°16' W 079°55'2 3.7
2019-Feb-22 18:00N 09°14' W 079°55'5 9.6
2019-Feb-22 17:30N 09°11' W 079°52'  
Track history (hours):
 
Tides and Currents Weather Stations Pressure Air Temp Water Temp Dewpoint Dewpoint Depression Visibility Wind Speed Wind Dir Waves Ship Positions

Seabourn Spirit

Operator: Cunard Seabourn

Last reported at 2019-Feb-24 00:00 UTC. Time now 2019-Feb-24 00:16 UTC.
Position N 09°21' W 079°55'.

Length 133 m; draft 5.6 m.

Type: Ship. MMSI: 311083000.

Date/timePositionNaut miles runAvg speedWind from/ knotsBaromVisibWave heightAir tempDewpointWater temp
2019-Feb-24 00:00N 09°21' W 079°55'0 0.0
2019-Feb-23 23:30N 09°21' W 079°55'0 0.0
2019-Feb-23 23:00N 09°21' W 079°55'0 0.0
2019-Feb-23 22:30N 09°21' W 079°55'0 0.0
2019-Feb-23 22:00N 09°21' W 079°55'0 0.0
2019-Feb-23 21:30N 09°21' W 079°55'0 0.0
2019-Feb-23 21:00N 09°21' W 079°55'0 0.0
2019-Feb-23 20:30N 09°21' W 079°55'0 0.0
2019-Feb-23 20:00N 09°21' W 079°55'0 0.0
2019-Feb-23 19:30N 09°21' W 079°55'0 0.0
2019-Feb-23 19:00N 09°21' W 079°55'0 0.0
2019-Feb-23 18:30N 09°21' W 079°55'0 0.0
2019-Feb-23 18:00N 09°21' W 079°55'0 0.0
2019-Feb-23 17:30N 09°21' W 079°55'0 0.0
2019-Feb-23 17:00N 09°21' W 079°55'0 0.0
2019-Feb-23 16:30N 09°21' W 079°55'0 0.0
2019-Feb-23 16:00N 09°21' W 079°55'0 0.0
2019-Feb-23 15:30N 09°21' W 079°55'0 0.0
2019-Feb-23 15:00N 09°21' W 079°55'0 0.0
2019-Feb-23 14:30N 09°21' W 079°55'0 0.0
2019-Feb-23 14:00N 09°21' W 079°55'0 0.0
2019-Feb-23 13:30N 09°21' W 079°55'0 0.0
2019-Feb-23 13:00N 09°21' W 079°55'0 0.0
2019-Feb-23 12:30N 09°21' W 079°55'0 0.0
2019-Feb-23 12:00N 09°21' W 079°55'0 0.0
2019-Feb-23 11:30N 09°21' W 079°55'0 0.0
2019-Feb-23 11:00N 09°21' W 079°55'0 0.0
2019-Feb-23 10:30N 09°21' W 079°55'0 0.0
2019-Feb-23 10:00N 09°21' W 079°55'0 0.0
2019-Feb-23 09:30N 09°21' W 079°55'0 0.0
2019-Feb-23 09:00N 09°21' W 079°55'0 0.0
2019-Feb-23 08:30N 09°21' W 079°55'0 0.0
2019-Feb-23 08:00N 09°21' W 079°55'0 0.0
2019-Feb-23 07:30N 09°21' W 079°55'0 0.0
2019-Feb-23 07:00N 09°21' W 079°55'0 0.0
2019-Feb-23 06:30N 09°21' W 079°55'0 0.0
2019-Feb-23 06:00N 09°21' W 079°55'0 0.0
2019-Feb-23 05:30N 09°21' W 079°55'0 0.0
2019-Feb-23 05:00N 09°21' W 079°55'0 0.0
2019-Feb-23 04:30N 09°21' W 079°55'0 0.0
2019-Feb-23 04:00N 09°21' W 079°55'0 0.0
2019-Feb-23 03:30N 09°21' W 079°55'0 0.0
2019-Feb-23 03:00N 09°21' W 079°55'0 0.0
2019-Feb-23 02:30N 09°21' W 079°55'0 0.0
2019-Feb-23 02:00N 09°21' W 079°55'0 0.3
2019-Feb-23 01:31N 09°21' W 079°55'2 3.8
2019-Feb-23 01:00N 09°23' W 079°55'3 5.8
2019-Feb-23 00:30N 09°26' W 079°55'3 5.7
2019-Feb-23 00:00N 09°29' W 079°55'3 6.0
2019-Feb-22 23:30N 09°32' W 079°54'3 6.0
2019-Feb-22 23:01N 09°32' W 079°51'3 5.0
2019-Feb-22 22:30N 09°30' W 079°52'3 6.3
2019-Feb-22 22:00N 09°27' W 079°54'3 5.5
2019-Feb-22 21:30N 09°25' W 079°55'4 8.8
2019-Feb-22 21:00N 09°21' W 079°55'4 7.4
2019-Feb-22 20:29N 09°17' W 079°55'0 0.4
2019-Feb-22 20:00N 09°16' W 079°55'0 0.3
2019-Feb-22 19:30N 09°16' W 079°55'0 0.6
2019-Feb-22 19:00N 09°16' W 079°55'0 0.5
2019-Feb-22 18:30N 09°16' W 079°55'2 3.7
2019-Feb-22 18:00N 09°14' W 079°55'5 9.6
2019-Feb-22 17:30N 09°11' W 079°52'  

Dump ship's entire track history